Time;durP1;ratioP1;P1;durP2;ratioP2;P2;SDS_P1;SDS_P2;PMS_P1;PMS_P2;Temp;Humidity;BMP_temperature;BMP_pressure;BME280_temperature;BME280_humidity;BME280_pressure;Samples;Min_cycle;Max_cycle;Signal;HPM_P1;HPM_P2
2022/11/27 00:01:25;;;;;;;12.63;5.83;;;;;;;10.24;52.39;100086.75;6276166;22;20155;-84
2022/11/27 00:03:51;;;;;;;10.63;4.97;;;;;;;10.18;52.50;100089.59;6276132;22;20468;-84
2022/11/27 00:06:20;;;;;;;8.20;5.23;;;;;;;10.19;53.08;100095.69;6249735;22;20156;-84
2022/11/27 00:08:46;;;;;;;10.43;5.30;;;;;;;10.18;53.06;100097.44;6249719;22;20149;-83
2022/11/27 00:11:17;;;;;;;11.77;5.50;;;;;;;10.22;52.84;100100.81;6276511;22;20165;-83
2022/11/27 00:13:44;;;;;;;10.07;5.37;;;;;;;10.24;52.86;100099.84;6276187;22;20136;-84
2022/11/27 00:16:11;;;;;;;10.93;4.67;;;;;;;10.23;53.01;100103.38;6276472;22;20583;-84
2022/11/27 00:18:36;;;;;;;10.63;5.00;;;;;;;10.18;53.37;100100.06;6275783;22;20220;-83
2022/11/27 00:21:07;;;;;;;15.37;5.20;;;;;;;10.19;53.54;100101.78;6276426;22;20160;-83
2022/11/27 00:23:34;;;;;;;9.30;4.17;;;;;;;10.19;53.23;100112.25;6249449;22;20147;-83
2022/11/27 00:25:59;;;;;;;8.83;4.70;;;;;;;10.19;53.38;100107.03;6276063;22;20147;-83
2022/11/27 00:28:25;;;;;;;10.13;4.87;;;;;;;10.20;53.61;100108.72;6276075;22;20148;-84
2022/11/27 00:30:50;;;;;;;9.87;5.23;;;;;;;10.16;54.01;100106.25;6275994;22;20478;-83
2022/11/27 00:33:16;;;;;;;10.33;5.00;;;;;;;10.19;53.91;100112.25;6276655;22;20235;-83
2022/11/27 00:35:41;;;;;;;13.70;5.17;;;;;;;10.25;54.04;100109.41;6251198;22;20152;-84
2022/11/27 00:38:07;;;;;;;12.47;4.87;;;;;;;10.19;54.28;100104.41;6278548;22;20172;-84
2022/11/27 00:40:33;;;;;;;12.23;5.00;;;;;;;10.19;54.15;100100.94;6277878;22;20463;-84
2022/11/27 00:43:00;;;;;;;13.63;5.47;;;;;;;10.21;53.75;100099.09;6251149;22;20183;-84
2022/11/27 00:45:26;;;;;;;13.10;5.17;;;;;;;10.19;54.10;100104.41;6251160;22;20164;-84
2022/11/27 00:47:51;;;;;;;13.67;5.33;;;;;;;10.17;54.57;100098.34;6251193;22;20152;-84
2022/11/27 00:50:17;;;;;;;15.23;5.90;;;;;;;10.24;54.01;100105.09;6278485;22;20149;-84
2022/11/27 00:52:42;;;;;;;11.83;5.40;;;;;;;10.26;53.93;100108.50;6251022;22;20151;-84
2022/11/27 00:55:08;;;;;;;18.33;6.00;;;;;;;10.27;54.16;100104.97;6277688;22;20208;-84
2022/11/27 00:57:33;;;;;;;12.87;4.80;;;;;;;10.25;54.89;100106.78;6250796;22;20196;-84
2022/11/27 00:59:59;;;;;;;10.90;4.77;;;;;;;10.26;54.76;100111.13;6251364;22;20243;-84
2022/11/27 01:02:24;;;;;;;7.20;3.73;;;;;;;10.27;54.19;100110.19;6277693;22;20155;-84
2022/11/27 01:04:49;;;;;;;12.37;5.07;;;;;;;10.26;53.85;100108.50;6278011;22;20155;-84
2022/11/27 01:07:15;;;;;;;10.60;4.73;;;;;;;10.27;54.15;100107.56;6278026;22;20557;-84
2022/11/27 01:09:41;;;;;;;10.00;3.80;;;;;;;10.30;53.91;100112.72;6250884;22;20165;-83
2022/11/27 01:12:07;;;;;;;9.10;3.47;;;;;;;10.31;54.03;100116.19;6277571;22;20148;-84
2022/11/27 01:14:32;;;;;;;6.67;3.60;;;;;;;10.30;54.29;100115.34;6277580;22;20247;-83
2022/11/27 01:16:58;;;;;;;10.30;3.90;;;;;;;10.36;54.02;100112.50;6277522;22;20568;-84
2022/11/27 01:19:24;;;;;;;5.77;3.00;;;;;;;10.35;53.48;100104.72;6277427;22;20195;-84
2022/11/27 01:21:49;;;;;;;7.20;3.80;;;;;;;10.31;53.59;100101.34;6277843;22;20178;-84
2022/11/27 01:24:15;;;;;;;8.03;3.00;;;;;;;10.32;53.97;100099.56;6277768;22;20213;-83
2022/11/27 01:26:42;;;;;;;6.40;2.93;;;;;;;10.30;53.95;100098.75;6277457;22;20221;-84
2022/11/27 01:29:07;;;;;;;6.27;2.97;;;;;;;10.29;53.96;100103.16;6250545;22;20440;-83
2022/11/27 01:31:33;;;;;;;9.27;2.90;;;;;;;10.24;54.00;100094.63;6250753;22;20306;-84
2022/11/27 01:34:14;;;;;;;7.30;4.10;;;;;;;10.23;54.50;100097.28;6277400;22;20621;-84
2022/11/27 01:36:40;;;;;;;11.80;4.80;;;;;;;10.22;55.27;100091.16;6250719;22;20145;-84
2022/11/27 01:39:06;;;;;;;12.17;6.07;;;;;;;10.24;55.38;100089.38;6277306;22;20186;-83
2022/11/27 01:41:34;;;;;;;9.60;6.00;;;;;;;10.21;55.46;100084.22;6277968;22;20440;-83
2022/11/27 01:44:02;;;;;;;7.43;3.30;;;;;;;10.23;55.03;100087.66;6277361;22;20633;-83
2022/11/27 01:46:34;;;;;;;9.47;4.60;;;;;;;10.28;55.18;100090.97;6250041;22;20590;-84
2022/11/27 01:49:22;;;;;;;10.60;4.33;;;;;;;10.24;55.06;100089.38;6277302;22;20534;-84
2022/11/27 01:51:52;;;;;;;7.40;4.13;;;;;;;10.23;55.54;100092.88;6250657;22;20159;-83
2022/11/27 01:54:20;;;;;;;13.10;5.70;;;;;;;10.23;55.72;100094.66;6277302;22;20216;-83
2022/11/27 01:56:49;;;;;;;11.80;4.73;;;;;;;10.23;55.56;100092.03;6277592;22;20148;-83
2022/11/27 01:59:17;;;;;;;9.07;3.97;;;;;;;10.34;55.73;100087.25;6277263;22;20180;-83
2022/11/27 02:01:42;;;;;;;8.77;3.80;;;;;;;10.34;55.43;100093.38;6250826;22;20655;-83
2022/11/27 02:04:08;;;;;;;6.10;3.20;;;;;;;10.29;55.08;100095.31;6277262;22;20226;-84
2022/11/27 02:06:33;;;;;;;7.87;3.57;;;;;;;10.24;54.89;100091.13;6250453;22;20665;-83
2022/11/27 02:08:59;;;;;;;10.00;4.40;;;;;;;10.19;54.89;100098.31;6277050;22;20149;-84
2022/11/27 02:11:54;;;;;;;5.60;2.97;;;;;;;10.27;54.65;100097.09;6277145;22;20144;-84
2022/11/27 02:14:43;;;;;;;6.93;2.37;;;;;;;10.25;53.80;100095.44;6273276;22;20152;-84
2022/11/27 02:17:38;;;;;;;8.53;3.30;;;;;;;10.23;53.63;100098.13;6277700;22;20537;-84
2022/11/27 02:20:27;;;;;;;6.73;2.67;;;;;;;10.28;53.20;100090.97;6245082;23;20184;-84
2022/11/27 02:23:22;;;;;;;5.77;2.90;;;;;;;10.30;52.32;100098.75;6245233;23;20142;-84
2022/11/27 02:26:12;;;;;;;4.60;2.40;;;;;;;10.30;51.59;100096.13;6245106;23;20584;-84
2022/11/27 02:28:52;;;;;;;6.03;2.40;;;;;;;10.32;51.28;100095.19;6246189;23;20141;-84
2022/11/27 02:31:22;;;;;;;6.60;3.10;;;;;;;10.31;51.03;100092.59;6246989;22;20132;-84
2022/11/27 02:33:53;;;;;;;6.57;3.03;;;;;;;10.34;50.92;100089.88;6246146;23;20250;-84
2022/11/27 02:36:24;;;;;;;6.30;2.83;;;;;;;10.37;50.70;100088.00;6245500;23;20149;-84
2022/11/27 02:39:01;;;;;;;7.03;3.10;;;;;;;10.38;50.54;100091.47;6246453;22;20584;-84
2022/11/27 02:41:41;;;;;;;7.33;3.07;;;;;;;10.39;50.30;100096.66;6246878;22;20164;-83
2022/11/27 02:44:08;;;;;;;6.77;3.40;;;;;;;10.35;50.17;100092.44;6245399;23;20148;-84
2022/11/27 02:46:33;;;;;;;7.83;2.97;;;;;;;10.34;50.05;100101.22;6246190;22;20475;-84
2022/11/27 02:49:07;;;;;;;7.83;3.63;;;;;;;10.35;49.63;100091.59;6246421;22;20559;-83
2022/11/27 02:51:39;;;;;;;8.90;3.73;;;;;;;10.36;50.00;100088.91;6246498;22;20205;-84
2022/11/27 02:54:08;;;;;;;8.20;3.67;;;;;;;10.31;50.35;100096.09;6244874;23;20228;-83
2022/11/27 02:56:35;;;;;;;7.73;3.20;;;;;;;10.32;50.47;100105.69;6244827;23;20167;-84
2022/11/27 02:59:08;;;;;;;6.03;3.20;;;;;;;10.27;51.05;100099.72;6246687;22;20183;-83
2022/11/27 03:01:40;;;;;;;6.47;3.00;;;;;;;10.28;50.96;100101.44;6247089;22;20176;-84
2022/11/27 03:04:12;;;;;;;6.43;3.23;;;;;;;10.34;50.49;100106.47;6242873;22;20137;-84
2022/11/27 03:06:58;;;;;;;6.30;3.10;;;;;;;10.38;50.03;100102.81;6220098;23;20306;-84
2022/11/27 03:09:33;;;;;;;8.70;3.30;;;;;;;10.41;50.06;100113.19;6221498;23;20239;-84
2022/11/27 03:11:59;;;;;;;8.23;3.10;;;;;;;10.41;50.08;100117.56;6245880;22;20137;-84
2022/11/27 03:14:24;;;;;;;9.00;3.03;;;;;;;10.36;50.75;100115.13;6244451;23;20652;-84
2022/11/27 03:16:56;;;;;;;12.20;2.93;;;;;;;10.37;51.24;100115.97;6245449;22;20538;-84
2022/11/27 03:19:27;;;;;;;5.60;2.63;;;;;;;10.34;51.41;100109.09;6265354;22;20181;-84
2022/11/27 03:21:56;;;;;;;5.87;3.27;;;;;;;10.34;51.46;100109.09;6276472;22;20137;-84
2022/11/27 03:24:22;;;;;;;5.93;2.77;;;;;;;10.36;51.62;100114.25;6276307;22;20151;-84
2022/11/27 03:26:48;;;;;;;9.90;3.53;;;;;;;10.33;51.39;100115.22;6249170;22;20591;-84
2022/11/27 03:29:22;;;;;;;7.67;3.13;;;;;;;10.30;51.51;100119.72;6276185;22;20145;-84
2022/11/27 03:31:51;;;;;;;7.37;3.50;;;;;;;10.25;51.39;100117.25;6249343;22;20175;-84
2022/11/27 03:34:20;;;;;;;8.50;3.90;;;;;;;10.33;51.25;100112.59;6276381;22;20152;-84
2022/11/27 03:36:45;;;;;;;6.90;3.40;;;;;;;10.38;50.41;100115.06;6276210;22;20163;-84
2022/11/27 03:39:11;;;;;;;10.17;2.97;;;;;;;10.38;50.39;100115.91;6247015;22;20183;-84
2022/11/27 03:41:49;;;;;;;5.30;2.63;;;;;;;10.39;50.13;100119.41;6249383;22;20258;-84
2022/11/27 03:44:33;;;;;;;7.20;3.83;;;;;;;10.35;50.89;100113.41;6276859;22;20167;-84
2022/11/27 03:47:26;;;;;;;5.80;2.80;;;;;;;10.34;51.08;100116.94;6249148;22;20158;-83
2022/11/27 03:50:01;;;;;;;8.50;3.50;;;;;;;10.36;51.14;100116.88;6249432;22;20148;-84
2022/11/27 03:52:41;;;;;;;7.77;3.77;;;;;;;10.37;50.67;100113.38;6276160;22;20211;-83
2022/11/27 03:55:25;;;;;;;8.93;4.90;;;;;;;10.36;50.48;100115.13;6249276;22;20231;-83
2022/11/27 03:58:01;;;;;;;9.80;3.93;;;;;;;10.35;50.75;100118.63;6249276;22;20191;-83
2022/11/27 04:00:32;;;;;;;8.70;4.00;;;;;;;10.35;50.44;100109.94;6249273;22;20155;-83
2022/11/27 04:02:57;;;;;;;8.83;4.47;;;;;;;10.38;50.27;100112.44;6275878;22;20563;-83
2022/11/27 04:05:23;;;;;;;8.07;4.23;;;;;;;10.37;50.38;100105.50;6249250;22;20240;-83
2022/11/27 04:07:49;;;;;;;10.40;4.87;;;;;;;10.35;50.87;100108.16;6276070;22;20153;-83
2022/11/27 04:10:14;;;;;;;8.07;3.63;;;;;;;10.38;50.21;100113.28;6278046;22;20599;-83
2022/11/27 04:12:40;;;;;;;9.47;4.53;;;;;;;10.39;50.30;100106.28;6251246;22;20166;-83
2022/11/27 04:15:06;;;;;;;14.73;4.47;;;;;;;10.39;50.24;100101.06;6250952;22;20155;-84
2022/11/27 04:17:32;;;;;;;12.13;4.77;;;;;;;10.39;49.96;100106.28;6277699;22;20590;-83
2022/11/27 04:19:57;;;;;;;10.03;4.77;;;;;;;10.35;50.50;100109.94;6278545;22;20217;-84
2022/11/27 04:22:22;;;;;;;13.00;4.33;;;;;;;10.35;50.05;100105.53;6278210;22;20148;-84
2022/11/27 04:24:48;;;;;;;10.07;4.90;;;;;;;10.30;50.21;100109.22;6251389;22;20151;-84
2022/11/27 04:27:13;;;;;;;11.80;5.40;;;;;;;10.27;50.61;100104.13;6251391;22;20156;-84
2022/11/27 04:29:39;;;;;;;9.80;4.67;;;;;;;10.24;50.32;100112.94;6251365;22;20214;-83
2022/11/27 04:32:05;;;;;;;13.30;5.03;;;;;;;10.14;50.86;100122.03;6251708;22;20155;-84
2022/11/27 04:34:31;;;;;;;12.27;3.90;;;;;;;10.07;50.66;100120.50;6251316;22;20155;-84
2022/11/27 04:36:57;;;;;;;10.37;4.70;;;;;;;10.01;51.48;100123.31;6251254;22;20567;-84
2022/11/27 04:39:22;;;;;;;12.20;4.97;;;;;;;10.04;51.26;100127.59;6278232;22;20182;-83
2022/11/27 04:41:48;;;;;;;8.30;4.30;;;;;;;10.03;51.48;100133.75;6277470;22;20226;-84
2022/11/27 04:44:13;;;;;;;8.23;4.50;;;;;;;10.01;51.35;100128.56;6277555;22;20171;-83
2022/11/27 04:46:39;;;;;;;8.13;3.90;;;;;;;9.98;51.77;100123.47;6277899;22;20152;-83
2022/11/27 04:49:04;;;;;;;8.80;3.93;;;;;;;9.94;51.78;100113.13;6277869;22;20143;-84
2022/11/27 04:51:30;;;;;;;9.60;4.43;;;;;;;9.91;51.92;100111.47;6251154;22;20235;-83
2022/11/27 04:53:55;;;;;;;11.77;5.00;;;;;;;9.88;51.88;100128.13;6251128;22;20225;-83
2022/11/27 04:56:21;;;;;;;7.37;3.90;;;;;;;9.87;52.09;100130.81;6251047;22;20218;-83
2022/11/27 04:58:46;;;;;;;7.97;3.67;;;;;;;9.86;51.82;100123.84;6277779;22;20176;-83
2022/11/27 05:01:12;;;;;;;9.37;4.50;;;;;;;9.85;52.30;100120.38;6278130;22;20150;-83
2022/11/27 05:03:37;;;;;;;12.10;3.97;;;;;;;9.87;52.04;100117.72;6250991;22;20155;-83
2022/11/27 05:06:03;;;;;;;8.07;3.83;;;;;;;9.88;52.05;100128.13;6278073;22;20149;-83
2022/11/27 05:08:30;;;;;;;6.90;3.60;;;;;;;9.88;52.07;100122.03;6250926;22;20182;-83
2022/11/27 05:11:05;;;;;;;8.97;3.63;;;;;;;9.86;52.47;100129.09;6277678;22;20217;-83
2022/11/27 05:13:31;;;;;;;11.07;5.50;;;;;;;9.83;52.70;100122.19;6250909;22;20158;-83
2022/11/27 05:15:56;;;;;;;9.70;5.03;;;;;;;9.92;52.49;100123.66;6277972;22;20147;-83
2022/11/27 05:18:22;;;;;;;9.90;4.37;;;;;;;9.93;52.19;100125.38;6245490;23;20188;-83
2022/11/27 05:20:58;;;;;;;10.20;4.60;;;;;;;9.91;52.21;100124.56;6246309;22;20151;-84
2022/11/27 05:23:24;;;;;;;10.07;4.33;;;;;;;9.90;52.16;100126.31;6245843;23;20183;-84
2022/11/27 05:25:50;;;;;;;10.20;4.67;;;;;;;9.90;52.75;100131.53;6245830;23;20159;-83
2022/11/27 05:28:15;;;;;;;12.97;5.10;;;;;;;9.91;52.90;100137.66;6247008;22;20217;-83
2022/11/27 05:30:41;;;;;;;10.07;3.83;;;;;;;9.94;53.11;100142.78;6245748;23;20474;-83
2022/11/27 05:33:06;;;;;;;9.97;4.40;;;;;;;9.99;52.77;100140.00;6245718;23;20160;-83
2022/11/27 05:35:32;;;;;;;12.67;4.43;;;;;;;9.90;52.43;100141.19;6245676;23;20486;-83
2022/11/27 05:37:57;;;;;;;13.63;5.40;;;;;;;9.98;52.44;100139.16;6246739;22;20184;-83
2022/11/27 05:40:23;;;;;;;11.03;5.20;;;;;;;9.99;51.93;100130.38;6246866;22;20173;-83
2022/11/27 05:42:48;;;;;;;10.90;5.23;;;;;;;9.99;51.75;100132.16;6246785;23;20148;-83
2022/11/27 05:45:14;;;;;;;8.90;4.67;;;;;;;9.88;51.71;100137.75;6247110;22;20159;-83
2022/11/27 05:47:39;;;;;;;8.77;4.20;;;;;;;9.84;52.53;100138.78;6245512;23;20669;-83
2022/11/27 05:50:05;;;;;;;8.80;4.53;;;;;;;9.82;52.08;100143.22;6245520;23;20213;-83
2022/11/27 05:52:31;;;;;;;10.77;4.57;;;;;;;9.74;52.43;100138.22;6247372;22;20440;-83
2022/11/27 05:54:56;;;;;;;7.33;3.60;;;;;;;9.76;53.01;100139.03;6246722;22;20262;-83
2022/11/27 05:57:21;;;;;;;11.17;5.10;;;;;;;9.76;52.83;100141.66;6245368;23;20165;-83
2022/11/27 05:59:47;;;;;;;9.07;4.23;;;;;;;9.82;53.27;100148.44;6245419;23;20246;-83
2022/11/27 06:02:12;;;;;;;8.40;4.13;;;;;;;9.88;52.84;100161.31;6246580;23;20226;-83
2022/11/27 06:04:38;;;;;;;10.77;5.27;;;;;;;9.86;53.10;100155.28;6246603;22;20451;-83
2022/11/27 06:07:03;;;;;;;8.60;4.40;;;;;;;9.89;53.30;100152.56;6245408;23;20544;-83
2022/11/27 06:09:29;;;;;;;11.00;4.80;;;;;;;9.95;54.00;100159.34;6246899;22;20145;-83
2022/11/27 06:11:54;;;;;;;11.57;5.33;;;;;;;9.99;53.80;100161.81;6246928;22;20475;-83
2022/11/27 06:14:20;;;;;;;12.57;5.37;;;;;;;10.05;53.94;100159.00;6246590;22;20227;-83
2022/11/27 06:16:45;;;;;;;11.93;5.63;;;;;;;10.10;53.79;100169.31;6246556;22;20148;-83
2022/11/27 06:19:11;;;;;;;13.70;6.33;;;;;;;10.15;53.60;100165.66;6263844;22;20260;-83
2022/11/27 06:21:36;;;;;;;16.77;6.13;;;;;;;10.21;53.81;100170.69;6250255;22;20478;-83
2022/11/27 06:24:02;;;;;;;16.53;6.37;;;;;;;10.28;53.64;100173.94;6250341;22;20176;-83
2022/11/27 06:26:30;;;;;;;15.13;6.37;;;;;;;10.33;53.64;100175.50;6276931;22;20145;-83
2022/11/27 06:28:57;;;;;;;12.90;4.90;;;;;;;10.43;52.25;100169.03;6250279;22;20189;-83
2022/11/27 06:31:26;;;;;;;11.50;4.70;;;;;;;10.41;52.80;100176.09;6277254;22;20155;-84
2022/11/27 06:33:54;;;;;;;12.03;4.57;;;;;;;10.49;52.69;100184.53;6276730;22;20145;-83
2022/11/27 06:36:21;;;;;;;10.80;5.30;;;;;;;10.52;52.73;100185.34;6277089;22;20144;-83
2022/11/27 06:38:47;;;;;;;16.03;6.13;;;;;;;10.65;51.24;100176.13;6273515;22;20206;-83
2022/11/27 06:41:18;;;;;;;12.23;5.57;;;;;;;10.64;51.53;100177.06;6275245;22;20155;-84
2022/11/27 06:43:44;;;;;;;10.73;5.33;;;;;;;10.71;50.59;100178.53;6249390;22;20475;-84
2022/11/27 06:46:15;;;;;;;13.20;5.43;;;;;;;10.72;50.97;100185.47;6275664;22;20155;-84
2022/11/27 06:48:44;;;;;;;12.40;5.33;;;;;;;10.76;50.75;100173.97;6223915;22;20251;-84
2022/11/27 06:51:13;;;;;;;15.20;5.63;;;;;;;10.82;51.37;100181.63;6275715;22;20144;-84
2022/11/27 06:53:41;;;;;;;12.90;5.27;;;;;;;10.89;51.50;100180.47;6249158;22;20153;-84
2022/11/27 06:56:11;;;;;;;19.37;5.83;;;;;;;10.89;51.44;100180.47;6275901;22;20148;-84
2022/11/27 06:58:39;;;;;;;13.60;5.43;;;;;;;11.02;50.99;100186.97;6275850;22;20177;-84
2022/11/27 07:01:08;;;;;;;10.60;4.73;;;;;;;11.11;51.00;100178.72;6249051;22;20226;-84
2022/11/27 07:03:36;;;;;;;11.77;4.80;;;;;;;11.13;50.60;100174.31;6276164;22;20155;-84
2022/11/27 07:06:05;;;;;;;13.47;4.97;;;;;;;11.24;50.66;100169.47;6249202;22;20231;-84
2022/11/27 07:08:36;;;;;;;7.93;4.23;;;;;;;11.30;50.03;100169.25;6249376;22;20166;-84
2022/11/27 07:11:19;;;;;;;12.03;5.50;;;;;;;11.34;48.88;100165.59;6275917;22;20132;-84
2022/11/27 07:13:46;;;;;;;15.43;6.00;;;;;;;11.30;48.57;100168.38;6276165;22;20160;-84
2022/11/27 07:16:14;;;;;;;11.27;5.13;;;;;;;11.28;49.07;100165.84;6222839;22;20156;-84
2022/11/27 07:18:47;;;;;;;9.40;4.37;;;;;;;11.31;48.07;100164.84;6243526;23;20207;-84
2022/11/27 07:21:16;;;;;;;11.47;4.50;;;;;;;11.30;47.66;100153.50;6219112;23;20161;-84
2022/11/27 07:23:45;;;;;;;11.97;4.20;;;;;;;11.33;48.44;100169.13;6244047;23;20188;-84
2022/11/27 07:26:18;;;;;;;14.13;4.60;;;;;;;11.41;48.72;100161.81;6243882;23;20152;-84
2022/11/27 07:28:44;;;;;;;11.40;5.03;;;;;;;11.51;47.54;100164.91;6245098;22;20129;-84
2022/11/27 07:31:13;;;;;;;13.63;6.90;;;;;;;11.54;47.15;100170.91;6245006;22;20156;-84
2022/11/27 07:33:40;;;;;;;14.30;6.00;;;;;;;11.49;47.44;100172.00;6218895;23;20169;-84
2022/11/27 07:36:14;;;;;;;12.73;4.77;;;;;;;11.59;47.73;100171.56;6244822;22;20219;-84
2022/11/27 07:38:41;;;;;;;12.33;5.40;;;;;;;11.60;47.45;100162.78;6244142;23;20173;-84
2022/11/27 07:41:07;;;;;;;12.83;5.67;;;;;;;11.61;47.95;100169.75;6244596;22;20152;-84
2022/11/27 07:43:34;;;;;;;9.80;5.10;;;;;;;11.66;48.17;100162.53;6242785;23;20616;-84
2022/11/27 07:46:07;;;;;;;9.63;4.77;;;;;;;11.69;47.11;100162.44;6244118;23;20157;-84
2022/11/27 07:48:33;;;;;;;11.33;4.90;;;;;;;11.74;46.72;100169.28;6246027;22;20133;-84
2022/11/27 07:50:59;;;;;;;6.60;3.70;;;;;;;11.80;46.35;100164.63;6245911;22;20192;-85
2022/11/27 07:53:24;;;;;;;16.83;5.53;;;;;;;11.81;46.47;100173.38;6245686;22;20152;-84
2022/11/27 07:55:50;;;;;;;16.43;6.03;;;;;;;11.75;45.94;100177.09;6244365;23;20476;-84
2022/11/27 07:58:15;;;;;;;11.97;4.07;;;;;;;11.73;46.42;100168.44;6244275;23;20180;-84
2022/11/27 08:00:41;;;;;;;14.33;5.27;;;;;;;11.75;45.94;100178.84;6244346;23;20160;-84
2022/11/27 08:03:06;;;;;;;10.63;5.20;;;;;;;11.79;47.20;100167.34;6244307;23;20485;-85
2022/11/27 08:05:33;;;;;;;10.43;3.93;;;;;;;11.94;46.08;100164.94;6245948;22;20608;-84
2022/11/27 08:08:00;;;;;;;13.47;4.77;;;;;;;12.09;45.94;100163.41;6244733;23;20146;-84
2022/11/27 08:10:26;;;;;;;16.67;6.63;;;;;;;12.03;46.32;100167.16;6245497;22;20483;-84
2022/11/27 08:12:51;;;;;;;10.87;4.70;;;;;;;11.96;45.80;100165.72;6244267;23;20181;-85
2022/11/27 08:15:17;;;;;;;11.47;4.53;;;;;;;11.95;46.02;100163.97;6244274;23;20218;-85
2022/11/27 08:17:42;;;;;;;10.33;4.87;;;;;;;11.98;45.99;100166.50;6245434;22;20156;-85
2022/11/27 08:20:08;;;;;;;6.23;3.57;;;;;;;12.11;46.07;100170.31;6271539;22;20568;-85
2022/11/27 08:22:34;;;;;;;10.80;4.40;;;;;;;12.17;45.79;100164.81;6249316;22;20161;-84
2022/11/27 08:25:00;;;;;;;9.57;3.93;;;;;;;12.22;45.92;100167.22;6276073;22;20149;-85
2022/11/27 08:27:25;;;;;;;18.27;7.17;;;;;;;12.25;45.89;100161.84;6249245;22;20222;-84
2022/11/27 08:29:50;;;;;;;22.63;7.87;;;;;;;12.38;44.69;100168.28;6249336;22;20232;-85
2022/11/27 08:32:16;;;;;;;16.13;5.80;;;;;;;12.48;44.79;100159.06;6275999;22;20490;-85
2022/11/27 08:34:41;;;;;;;13.43;5.57;;;;;;;12.59;44.31;100151.56;6249677;22;20574;-85
2022/11/27 08:37:07;;;;;;;14.33;5.47;;;;;;;12.64;43.77;100151.34;6249652;22;20157;-85
2022/11/27 08:39:32;;;;;;;10.63;4.73;;;;;;;12.51;44.48;100144.91;6275909;22;20179;-85
2022/11/27 08:41:58;;;;;;;22.80;9.03;;;;;;;12.38;45.15;100147.25;6249296;22;20218;-85
2022/11/27 08:44:24;;;;;;;12.13;5.90;;;;;;;12.38;45.27;100141.97;6249306;22;20152;-85
2022/11/27 08:46:49;;;;;;;14.47;5.13;;;;;;;12.43;45.32;100153.16;6249141;22;20310;-85
2022/11/27 08:49:15;;;;;;;10.10;4.90;;;;;;;12.59;46.21;100141.03;6249216;22;20159;-85
2022/11/27 08:51:40;;;;;;;10.47;3.60;;;;;;;12.70;43.71;100138.78;6249220;22;20169;-85
2022/11/27 08:54:06;;;;;;;11.63;5.03;;;;;;;12.70;43.97;100136.16;6249441;22;20539;-85
2022/11/27 08:56:31;;;;;;;13.03;4.27;;;;;;;12.81;44.52;100141.75;6251074;22;20148;-85
2022/11/27 08:58:57;;;;;;;10.30;4.10;;;;;;;12.96;43.30;100134.94;6277975;22;20177;-85
2022/11/27 09:01:25;;;;;;;8.47;3.27;;;;;;;13.01;42.85;100124.22;6251395;22;20218;-85
2022/11/27 09:03:51;;;;;;;9.50;4.30;;;;;;;13.09;42.75;100124.72;6251095;22;20192;-85
2022/11/27 09:06:22;;;;;;;12.20;4.00;;;;;;;13.25;42.47;100115.19;6251080;22;20487;-85
2022/11/27 09:08:51;;;;;;;10.97;4.30;;;;;;;13.25;42.73;100110.78;6251068;22;20164;-85
2022/11/27 09:11:18;;;;;;;7.50;3.27;;;;;;;13.08;41.85;100107.22;6251315;22;20170;-85
2022/11/27 09:13:44;;;;;;;6.03;3.27;;;;;;;13.05;42.38;100107.38;6250900;22;20154;-85
2022/11/27 09:16:13;;;;;;;7.17;3.47;;;;;;;13.26;42.55;100098.47;6277939;22;20159;-85
2022/11/27 09:18:39;;;;;;;13.07;4.93;;;;;;;13.27;42.36;100093.13;6277526;22;20195;-86
2022/11/27 09:21:09;;;;;;;10.57;3.53;;;;;;;13.41;42.07;100095.09;6277922;22;20148;-85
2022/11/27 09:23:36;;;;;;;9.17;2.97;;;;;;;13.62;40.14;100088.78;6250824;22;20155;-85
2022/11/27 09:26:05;;;;;;;7.73;3.30;;;;;;;13.72;40.52;100086.50;6250792;22;20538;-85
2022/11/27 09:28:34;;;;;;;9.23;3.37;;;;;;;13.65;41.82;100087.75;6277447;22;20143;-85
2022/11/27 09:31:02;;;;;;;11.50;4.13;;;;;;;13.66;42.07;100081.53;6278146;22;20245;-86
2022/11/27 09:33:29;;;;;;;13.03;5.93;;;;;;;13.73;42.03;100075.88;6251393;22;20156;-85
2022/11/27 09:35:55;;;;;;;10.07;4.20;;;;;;;13.83;41.26;100074.53;6251036;22;20250;-85
2022/11/27 09:38:22;;;;;;;9.90;4.20;;;;;;;13.83;41.48;100077.16;6251463;22;20258;-85
2022/11/27 09:40:50;;;;;;;10.23;3.77;;;;;;;13.93;40.21;100059.06;6250655;22;20166;-85
2022/11/27 09:43:23;;;;;;;7.23;3.00;;;;;;;14.06;41.04;100053.09;6250980;22;20156;-85
2022/11/27 09:45:56;;;;;;;7.10;3.10;;;;;;;13.96;41.07;100051.88;6278420;22;20139;-86
2022/11/27 09:48:34;;;;;;;7.17;3.20;;;;;;;13.73;40.99;100046.06;6278082;22;20129;-85
2022/11/27 09:51:22;;;;;;;7.37;3.23;;;;;;;13.77;40.49;100043.19;6276602;22;20539;-85
2022/11/27 09:53:59;;;;;;;6.00;2.90;;;;;;;13.84;40.94;100041.09;6229329;22;20251;-85
2022/11/27 09:56:24;;;;;;;7.20;3.30;;;;;;;13.93;40.60;100020.41;6250499;22;20151;-85
2022/11/27 09:58:57;;;;;;;6.20;3.00;;;;;;;13.99;39.05;100030.59;6250570;22;20184;-85
2022/11/27 10:01:32;;;;;;;9.53;2.93;;;;;;;14.01;39.65;100018.22;6249568;22;20664;-85
2022/11/27 10:04:00;;;;;;;6.47;2.63;;;;;;;14.00;39.10;100020.91;6247774;22;20226;-85
2022/11/27 10:06:51;;;;;;;4.97;2.60;;;;;;;14.30;39.48;100007.91;6274323;22;20152;-85
2022/11/27 10:09:28;;;;;;;5.70;2.13;;;;;;;14.43;39.43;100006.34;6247820;22;20160;-85
2022/11/27 10:12:28;;;;;;;4.73;1.37;;;;;;;14.53;37.52;100002.25;6274998;22;20148;-86
2022/11/27 10:14:54;;;;;;;5.80;2.23;;;;;;;14.58;37.57;99997.56;6247822;22;20155;-85
2022/11/27 10:17:25;;;;;;;6.87;2.33;;;;;;;14.60;38.00;99985.13;6248714;22;20231;-85
2022/11/27 10:20:02;;;;;;;3.83;1.93;;;;;;;14.60;36.61;99990.41;6250138;22;20195;-85
2022/11/27 10:22:45;;;;;;;3.83;1.80;;;;;;;14.60;36.90;99987.78;6277733;22;20585;-85
2022/11/27 10:25:28;;;;;;;4.90;2.10;;;;;;;14.73;36.29;99991.44;6250344;22;20171;-86
2022/11/27 10:28:12;;;;;;;5.53;2.40;;;;;;;14.64;36.69;99982.25;6277407;22;20156;-85
2022/11/27 10:30:54;;;;;;;5.87;2.67;;;;;;;14.63;36.73;99985.81;6250260;22;20156;-85
2022/11/27 10:33:32;;;;;;;4.03;1.90;;;;;;;14.79;36.88;99985.81;6250480;22;20242;-85
2022/11/27 10:35:59;;;;;;;8.00;3.70;;;;;;;14.85;37.55;99980.22;6277990;22;20210;-85
2022/11/27 10:38:27;;;;;;;7.73;3.37;;;;;;;14.88;36.87;99981.81;6277137;22;20187;-85
2022/11/27 10:41:05;;;;;;;7.73;2.37;;;;;;;14.90;36.39;99978.16;6248851;22;20213;-85
2022/11/27 10:43:30;;;;;;;7.10;3.00;;;;;;;14.88;36.33;99976.53;6249575;22;20148;-85
2022/11/27 10:46:15;;;;;;;7.97;2.80;;;;;;;14.68;36.79;99973.22;6250182;22;20159;-85
2022/11/27 10:48:41;;;;;;;6.17;2.40;;;;;;;14.71;36.39;99972.19;6250076;22;20137;-85
2022/11/27 10:51:34;;;;;;;4.87;2.33;;;;;;;14.87;36.38;99967.75;6251407;22;20153;-85
2022/11/27 10:54:02;;;;;;;7.60;2.97;;;;;;;14.81;37.03;99968.09;6271750;22;20152;-85
2022/11/27 10:56:57;;;;;;;6.50;2.60;;;;;;;14.79;35.96;99967.34;6276819;22;20157;-85
2022/11/27 10:59:30;;;;;;;3.83;1.50;;;;;;;14.59;36.11;99963.19;6223807;22;20192;-85
2022/11/27 11:01:57;;;;;;;15.93;6.20;;;;;;;14.55;36.76;99964.28;6277151;22;20144;-85
2022/11/27 11:04:29;;;;;;;17.87;7.20;;;;;;;14.72;37.09;99960.72;6277278;22;20235;-85
2022/11/27 11:06:55;;;;;;;5.27;2.80;;;;;;;14.66;36.27;99956.63;6277050;22;20219;-85
2022/11/27 11:09:28;;;;;;;4.60;2.03;;;;;;;14.45;36.09;99963.09;6276684;22;20141;-85
2022/11/27 11:12:05;;;;;;;6.97;1.97;;;;;;;14.64;36.34;99955.03;6251055;22;20147;-85
2022/11/27 11:14:30;;;;;;;4.23;2.23;;;;;;;14.52;36.17;99953.03;6249892;22;20548;-85
2022/11/27 11:16:56;;;;;;;4.77;2.10;;;;;;;14.58;36.50;99945.66;6250266;22;20148;-85
2022/11/27 11:19:35;;;;;;;6.80;2.80;;;;;;;14.66;35.61;99947.88;6249670;22;20532;-85
2022/11/27 11:22:14;;;;;;;6.23;2.50;;;;;;;14.78;35.86;99941.88;6246661;22;20235;-85
2022/11/27 11:24:46;;;;;;;4.63;2.50;;;;;;;14.78;36.07;99939.25;6249637;22;20224;-85
2022/11/27 11:27:24;;;;;;;4.73;2.03;;;;;;;14.90;36.24;99924.50;6249507;22;20147;-85
2022/11/27 11:29:55;;;;;;;10.77;2.37;;;;;;;15.05;35.27;99924.47;6249616;22;20148;-85
2022/11/27 11:32:25;;;;;;;4.20;1.60;;;;;;;15.05;35.00;99924.47;6249410;22;20136;-85
2022/11/27 11:35:00;;;;;;;4.53;1.80;;;;;;;14.99;35.94;99916.88;6250306;22;20153;-85